Time;durP1;ratioP1;P1;durP2;ratioP2;P2;SDS_P1;SDS_P2;PMS_P1;PMS_P2;Temp;Humidity;BMP_temperature;BMP_pressure;BME280_temperature;BME280_humidity;BME280_pressure;Samples;Min_cycle;Max_cycle;Signal;HPM_P1;HPM_P2
2022/08/25 00:01:55;;;;;;;4.13;3.40;;;19.60;99.90;;;;;;5064247;28;20926;-41
2022/08/25 00:04:25;;;;;;;4.40;2.77;;;19.70;99.90;;;;;;5062742;28;20252;-41
2022/08/25 00:06:54;;;;;;;3.33;2.90;;;19.70;99.90;;;;;;5064824;28;20660;-41
2022/08/25 00:09:24;;;;;;;6.30;3.80;;;19.70;99.90;;;;;;5057974;28;20230;-41
2022/08/25 00:11:51;;;;;;;3.40;3.10;;;19.70;99.90;;;;;;5068771;28;20206;-43
2022/08/25 00:14:21;;;;;;;4.10;3.40;;;19.70;99.90;;;;;;5063310;28;20209;-39
2022/08/25 00:16:48;;;;;;;3.30;3.00;;;19.70;99.90;;;;;;5063580;28;20201;-41
2022/08/25 00:19:18;;;;;;;4.20;3.43;;;19.70;99.90;;;;;;5064874;28;20190;-40
2022/08/25 00:21:47;;;;;;;4.17;2.97;;;19.70;99.90;;;;;;5063067;28;20221;-40
2022/08/25 00:24:17;;;;;;;4.37;3.10;;;19.70;99.90;;;;;;5052715;28;20568;-40
2022/08/25 00:26:46;;;;;;;6.50;3.60;;;19.60;99.90;;;;;;5072712;28;20194;-42
2022/08/25 00:29:15;;;;;;;4.03;3.20;;;19.60;99.90;;;;;;5064493;28;20297;-41
2022/08/25 00:31:42;;;;;;;5.23;3.30;;;19.60;99.90;;;;;;5061941;28;20919;-40
2022/08/25 00:34:13;;;;;;;4.80;3.70;;;19.50;99.90;;;;;;5064220;28;20199;-44
2022/08/25 00:36:40;;;;;;;6.43;3.57;;;19.50;99.90;;;;;;5061863;28;20997;-41
2022/08/25 00:39:10;;;;;;;4.13;3.60;;;19.60;99.90;;;;;;5064682;28;20186;-40
2022/08/25 00:41:38;;;;;;;4.63;3.17;;;19.50;99.90;;;;;;5055935;28;20219;-45
2022/08/25 00:44:09;;;;;;;3.57;3.27;;;19.40;99.90;;;;;;5065127;28;20207;-41
2022/08/25 00:46:38;;;;;;;3.37;3.03;;;19.40;99.90;;;;;;5061247;28;20959;-40
2022/08/25 00:49:09;;;;;;;4.40;3.97;;;19.50;99.90;;;;;;5064740;28;20206;-42
2022/08/25 00:51:41;;;;;;;6.17;3.20;;;19.40;99.90;;;;;;5060679;28;20207;-40
2022/08/25 00:54:15;;;;;;;3.63;3.03;;;19.40;99.90;;;;;;5069970;28;20255;-44
2022/08/25 00:56:44;;;;;;;4.10;3.27;;;19.40;99.90;;;;;;5054071;28;20202;-40
2022/08/25 00:59:11;;;;;;;4.57;3.63;;;19.30;99.90;;;;;;5074516;28;20194;-41
2022/08/25 01:01:38;;;;;;;5.90;3.40;;;19.30;99.90;;;;;;5060658;28;20956;-41
2022/08/25 01:04:06;;;;;;;7.30;4.00;;;19.30;99.90;;;;;;5062868;28;20745;-41
2022/08/25 01:06:36;;;;;;;4.83;3.37;;;19.30;99.90;;;;;;5060464;28;20202;-40
2022/08/25 01:09:03;;;;;;;3.50;3.20;;;19.30;99.90;;;;;;5064489;28;20249;-39
2022/08/25 01:11:31;;;;;;;5.97;3.27;;;19.30;99.90;;;;;;5050320;28;20284;-39
2022/08/25 01:14:02;;;;;;;4.37;3.47;;;19.30;99.90;;;;;;5071783;28;20198;-39
2022/08/25 01:16:28;;;;;;;4.73;3.80;;;19.30;99.90;;;;;;5058978;28;20285;-39
2022/08/25 01:18:59;;;;;;;3.90;3.40;;;19.20;99.90;;;;;;5070363;28;20230;-40
2022/08/25 01:21:29;;;;;;;4.43;3.33;;;19.30;99.90;;;;;;5061018;28;20242;-40
2022/08/25 01:23:59;;;;;;;3.90;3.33;;;19.20;99.90;;;;;;5065269;28;20203;-39
2022/08/25 01:26:29;;;;;;;5.30;3.23;;;19.30;99.90;;;;;;5056081;28;20215;-41
2022/08/25 01:31:42;;;;;;;3.43;3.23;;;19.20;99.90;;;;;;5061128;28;20210;-39
2022/08/25 01:34:12;;;;;;;5.17;3.50;;;19.20;99.90;;;;;;5062981;28;20205;-43
2022/08/25 01:36:42;;;;;;;3.67;3.37;;;19.20;99.90;;;;;;5060497;28;20182;-40
2022/08/25 01:39:09;;;;;;;3.77;3.47;;;19.10;99.90;;;;;;5063824;28;20690;-40
2022/08/25 01:41:45;;;;;;;4.73;3.87;;;19.10;99.90;;;;;;5048606;28;20210;-39
2022/08/25 01:44:12;;;;;;;4.20;3.47;;;19.10;99.90;;;;;;5072993;28;20209;-41
2022/08/25 01:46:40;;;;;;;3.97;3.53;;;19.10;99.90;;;;;;5060395;28;20359;-39
2022/08/25 01:49:07;;;;;;;4.17;3.37;;;19.00;99.90;;;;;;5063917;28;20198;-40
2022/08/25 01:51:38;;;;;;;4.87;3.53;;;19.00;99.90;;;;;;5059811;28;20496;-41
2022/08/25 01:54:07;;;;;;;4.00;3.33;;;19.00;99.90;;;;;;5067539;28;20202;-39
2022/08/25 01:56:33;;;;;;;3.97;3.57;;;19.00;99.90;;;;;;5056795;28;20243;-40
2022/08/25 01:59:00;;;;;;;3.67;3.37;;;19.00;99.90;;;;;;5072177;28;20203;-39
2022/08/25 02:01:28;;;;;;;6.30;4.30;;;19.00;99.90;;;;;;5060954;28;20230;-40
2022/08/25 02:03:57;;;;;;;5.70;4.63;;;19.00;99.90;;;;;;5062529;28;20671;-41
2022/08/25 02:06:27;;;;;;;6.07;3.47;;;18.90;99.90;;;;;;5061603;28;20210;-40
2022/08/25 02:08:56;;;;;;;4.73;3.90;;;18.90;99.90;;;;;;5062958;28;20204;-42
2022/08/25 02:11:25;;;;;;;3.87;3.03;;;18.90;99.90;;;;;;5061343;28;20221;-40
2022/08/25 02:13:52;;;;;;;3.83;3.47;;;18.80;99.90;;;;;;5060090;28;20310;-41
2022/08/25 02:16:22;;;;;;;4.80;4.37;;;18.70;99.90;;;;;;5076330;28;20663;-40
2022/08/25 02:18:49;;;;;;;5.47;3.90;;;18.70;99.90;;;;;;5066422;28;20197;-40
2022/08/25 02:21:17;;;;;;;4.80;4.10;;;18.70;99.90;;;;;;5066698;28;20587;-39
2022/08/25 02:23:44;;;;;;;5.97;3.87;;;18.70;99.90;;;;;;5069166;28;20198;-39
2022/08/25 02:26:15;;;;;;;4.50;3.40;;;18.60;99.90;;;;;;5074286;28;20273;-41
2022/08/25 02:28:46;;;;;;;4.37;3.80;;;18.60;99.90;;;;;;5053223;28;20210;-41
2022/08/25 02:31:15;;;;;;;4.50;3.97;;;18.60;99.90;;;;;;5071421;28;20226;-41
2022/08/25 02:33:44;;;;;;;7.30;3.93;;;18.60;99.90;;;;;;5083279;28;20264;-41
2022/08/25 02:36:11;;;;;;;4.37;3.57;;;18.60;99.90;;;;;;5086847;28;20217;-38
2022/08/25 02:38:39;;;;;;;6.37;4.17;;;18.60;99.90;;;;;;5082807;28;20201;-40
2022/08/25 02:41:11;;;;;;;3.93;3.63;;;18.50;99.90;;;;;;5066949;28;20595;-40
2022/08/25 02:43:40;;;;;;;4.03;3.63;;;18.50;99.90;;;;;;5062309;28;20202;-41
2022/08/25 02:46:10;;;;;;;3.97;3.43;;;18.50;99.90;;;;;;5067596;28;20655;-40
2022/08/25 02:48:37;;;;;;;5.40;4.00;;;18.40;99.90;;;;;;5070681;28;20214;-40
2022/08/25 02:51:05;;;;;;;4.27;3.80;;;18.40;99.90;;;;;;5066968;28;20225;-39
2022/08/25 02:53:33;;;;;;;6.37;3.50;;;18.30;99.90;;;;;;5064711;28;20194;-41
2022/08/25 02:56:00;;;;;;;4.70;3.67;;;18.30;99.90;;;;;;5077101;28;20205;-39
2022/08/25 02:58:28;;;;;;;5.37;4.50;;;18.30;99.90;;;;;;5066909;28;20230;-39
2022/08/25 03:00:55;;;;;;;4.47;4.07;;;18.30;99.90;;;;;;5058498;28;20275;-39
2022/08/25 03:03:23;;;;;;;5.20;4.70;;;18.30;99.90;;;;;;5066515;28;20276;-40
2022/08/25 03:05:50;;;;;;;6.60;4.37;;;18.30;99.90;;;;;;5065339;28;20274;-39
2022/08/25 03:08:17;;;;;;;4.63;4.23;;;18.30;99.90;;;;;;5065971;28;20194;-38
2022/08/25 03:10:44;;;;;;;6.77;4.00;;;18.30;99.90;;;;;;5063557;28;20215;-44
2022/08/25 03:13:11;;;;;;;5.80;4.20;;;18.30;99.90;;;;;;5065756;28;20194;-39
2022/08/25 03:15:41;;;;;;;4.63;4.17;;;18.20;99.90;;;;;;5052864;28;20216;-40
2022/08/25 03:18:07;;;;;;;5.37;4.83;;;18.20;99.90;;;;;;5071829;28;20666;-42
2022/08/25 03:20:36;;;;;;;4.50;4.07;;;18.20;99.90;;;;;;5062509;28;20187;-42
2022/08/25 03:23:04;;;;;;;5.60;4.20;;;18.20;99.90;;;;;;5066178;28;20222;-41
2022/08/25 03:28:16;;;;;;;5.00;4.50;;;18.20;99.90;;;;;;5069675;28;20194;-41
2022/08/25 03:30:43;;;;;;;5.27;4.83;;;18.20;99.90;;;;;;5054225;28;20249;-44
2022/08/25 03:33:11;;;;;;;5.07;4.50;;;18.20;99.90;;;;;;5075270;28;20198;-41
2022/08/25 03:35:39;;;;;;;6.80;4.47;;;18.20;99.90;;;;;;5062157;28;20754;-41
2022/08/25 03:38:06;;;;;;;5.07;4.07;;;18.10;99.90;;;;;;5066377;28;20202;-41
2022/08/25 03:40:33;;;;;;;5.40;4.37;;;18.10;99.90;;;;;;5061801;28;20199;-42
2022/08/25 03:43:00;;;;;;;4.77;4.37;;;18.10;99.90;;;;;;5065774;28;20228;-40
2022/08/25 03:45:26;;;;;;;5.13;4.57;;;18.00;99.90;;;;;;5053736;28;20567;-39
2022/08/25 03:47:54;;;;;;;7.47;6.63;;;18.00;99.90;;;;;;5068458;28;20199;-44
2022/08/25 03:50:22;;;;;;;5.83;4.63;;;18.00;99.90;;;;;;5070342;28;20198;-39
2022/08/25 03:52:54;;;;;;;6.83;5.40;;;18.00;99.90;;;;;;5064064;28;20194;-40
2022/08/25 03:55:22;;;;;;;6.20;4.80;;;18.00;99.90;;;;;;5074140;28;20201;-40
2022/08/25 03:57:49;;;;;;;8.90;4.77;;;18.00;99.90;;;;;;5065968;28;20525;-43
2022/08/25 04:00:16;;;;;;;5.40;5.00;;;18.00;99.90;;;;;;5063089;28;20214;-41
2022/08/25 04:02:43;;;;;;;11.00;4.70;;;17.90;99.90;;;;;;5051193;28;20237;-39
2022/08/25 04:05:11;;;;;;;5.27;4.73;;;17.90;99.90;;;;;;5072522;28;20690;-40
2022/08/25 04:07:38;;;;;;;4.73;4.40;;;17.90;99.90;;;;;;5065856;28;20252;-39
2022/08/25 04:10:08;;;;;;;5.80;4.80;;;17.80;99.90;;;;;;5067320;28;20230;-42
2022/08/25 04:12:37;;;;;;;4.80;4.40;;;17.80;99.90;;;;;;5072396;28;21032;-39
2022/08/25 04:15:04;;;;;;;6.07;4.60;;;17.80;99.90;;;;;;5072027;28;20186;-41
2022/08/25 04:17:31;;;;;;;5.97;4.73;;;17.80;99.90;;;;;;5056924;28;21163;-39
2022/08/25 04:19:58;;;;;;;4.70;4.20;;;17.80;99.90;;;;;;5067882;28;20197;-40
2022/08/25 04:22:24;;;;;;;6.00;4.47;;;17.80;99.90;;;;;;5067837;28;20218;-41
2022/08/25 04:24:51;;;;;;;4.50;4.10;;;17.90;99.90;;;;;;5068008;28;20209;-40
2022/08/25 04:27:19;;;;;;;5.93;4.60;;;17.90;99.90;;;;;;5070991;28;20206;-40
2022/08/25 04:29:46;;;;;;;5.27;4.77;;;17.90;99.90;;;;;;5063532;28;20245;-40
2022/08/25 04:32:13;;;;;;;4.93;4.40;;;17.90;99.90;;;;;;5071575;28;20209;-41
2022/08/25 04:34:41;;;;;;;6.83;4.70;;;17.90;99.90;;;;;;5053151;28;20237;-40
2022/08/25 04:37:09;;;;;;;5.20;4.80;;;17.90;99.90;;;;;;5078542;28;20247;-40
2022/08/25 04:39:36;;;;;;;7.50;4.17;;;17.90;99.90;;;;;;5055819;28;20231;-43
2022/08/25 04:42:03;;;;;;;6.17;5.17;;;17.80;99.90;;;;;;5061172;28;20624;-41
2022/08/25 04:44:31;;;;;;;8.60;5.00;;;17.80;99.90;;;;;;5071807;28;20357;-40
2022/08/25 04:46:58;;;;;;;8.80;5.47;;;17.80;99.90;;;;;;5061548;28;20206;-42
2022/08/25 04:49:25;;;;;;;6.07;4.90;;;17.70;99.90;;;;;;5056607;28;20332;-41
2022/08/25 04:51:51;;;;;;;4.70;4.27;;;17.70;99.90;;;;;;5070302;28;20236;-39
2022/08/25 04:54:20;;;;;;;6.70;5.30;;;17.70;99.90;;;;;;5064876;28;20952;-41
2022/08/25 04:56:49;;;;;;;6.17;5.40;;;17.70;99.90;;;;;;5065979;28;20195;-44
2022/08/25 04:59:17;;;;;;;4.93;4.40;;;17.70;99.90;;;;;;5072437;28;20194;-42
2022/08/25 05:01:47;;;;;;;6.77;4.70;;;17.70;99.90;;;;;;5067029;28;20218;-40
2022/08/25 05:04:16;;;;;;;5.63;4.93;;;17.80;99.90;;;;;;5060154;28;20222;-44
2022/08/25 05:06:43;;;;;;;5.77;5.07;;;17.80;99.90;;;;;;5064060;28;20206;-41
2022/08/25 05:09:10;;;;;;;6.33;5.20;;;17.80;99.90;;;;;;5066434;28;20205;-40
2022/08/25 05:11:37;;;;;;;9.47;6.00;;;17.80;99.90;;;;;;5066360;28;20967;-39
2022/08/25 05:14:10;;;;;;;8.93;6.63;;;17.80;99.90;;;;;;5068985;28;20538;-40
2022/08/25 05:16:37;;;;;;;10.13;7.20;;;17.80;99.90;;;;;;5068424;28;20209;-40
2022/08/25 05:19:07;;;;;;;9.93;6.97;;;17.80;99.90;;;;;;5061670;28;20198;-39
2022/08/25 05:21:33;;;;;;;7.37;6.47;;;17.80;99.90;;;;;;5056471;28;20275;-40
2022/08/25 05:24:02;;;;;;;6.80;6.17;;;17.80;99.90;;;;;;5073391;28;20216;-40
2022/08/25 05:26:31;;;;;;;7.77;6.97;;;17.80;99.90;;;;;;5060009;28;20722;-40
2022/08/25 05:29:00;;;;;;;15.70;8.43;;;17.80;99.90;;;;;;5068123;28;20202;-40
2022/08/25 05:31:28;;;;;;;12.90;8.70;;;17.80;99.90;;;;;;5073704;28;20209;-41
2022/08/25 05:33:56;;;;;;;9.43;8.30;;;17.80;99.90;;;;;;5068195;28;20199;-40
2022/08/25 05:36:27;;;;;;;7.93;7.23;;;17.70;99.90;;;;;;5051623;28;20246;-40
2022/08/25 05:38:54;;;;;;;9.03;8.23;;;17.80;99.90;;;;;;5075320;28;20194;-41
2022/08/25 05:41:25;;;;;;;11.90;9.23;;;17.80;99.90;;;;;;5063138;28;20275;-40
2022/08/25 05:43:51;;;;;;;9.37;8.43;;;17.80;99.90;;;;;;5067914;28;20214;-41
2022/08/25 05:46:20;;;;;;;13.10;9.43;;;17.90;99.90;;;;;;5064977;28;20194;-41
2022/08/25 05:48:48;;;;;;;10.37;9.27;;;17.90;99.90;;;;;;5077162;28;20221;-42
2022/08/25 05:51:16;;;;;;;9.87;8.87;;;17.90;99.90;;;;;;5063480;28;20230;-42
2022/08/25 05:53:47;;;;;;;10.20;9.20;;;17.90;99.90;;;;;;5059850;28;20243;-42
2022/08/25 05:56:14;;;;;;;11.23;10.07;;;17.90;99.90;;;;;;5053707;28;20196;-41
2022/08/25 05:58:42;;;;;;;11.47;10.17;;;17.90;99.90;;;;;;5070719;28;20226;-43
2022/08/25 06:03:54;;;;;;;12.83;11.17;;;18.00;99.90;;;;;;5069771;28;20221;-43
2022/08/25 06:06:21;;;;;;;14.10;11.13;;;18.00;99.90;;;;;;5056171;28;20261;-40
2022/08/25 06:08:50;;;;;;;13.03;11.37;;;18.00;99.90;;;;;;5053723;28;20237;-38
2022/08/25 06:11:18;;;;;;;12.70;11.47;;;18.10;99.90;;;;;;5069985;28;20214;-41
2022/08/25 06:13:45;;;;;;;13.77;12.17;;;18.10;99.90;;;;;;5059936;28;20293;-41
2022/08/25 06:16:12;;;;;;;17.87;13.57;;;18.10;99.90;;;;;;5062188;28;20199;-43
2022/08/25 06:18:39;;;;;;;19.57;14.03;;;18.10;99.90;;;;;;5069226;28;20281;-41
2022/08/25 06:21:11;;;;;;;15.47;13.33;;;18.10;99.90;;;;;;5062349;28;20229;-42
2022/08/25 06:23:38;;;;;;;18.23;13.87;;;18.10;99.90;;;;;;5051682;28;20314;-41
2022/08/25 06:26:09;;;;;;;21.00;14.47;;;18.20;99.90;;;;;;5065709;28;20205;-40
2022/08/25 06:28:36;;;;;;;15.80;13.33;;;18.30;99.90;;;;;;5072405;28;20199;-43
2022/08/25 06:31:03;;;;;;;17.80;15.00;;;18.30;99.90;;;;;;5062358;28;20218;-40
2022/08/25 06:33:30;;;;;;;19.50;17.10;;;18.40;99.90;;;;;;5068967;28;20605;-43
2022/08/25 06:35:58;;;;;;;17.87;15.03;;;18.50;99.90;;;;;;5063453;28;20199;-43
2022/08/25 06:38:25;;;;;;;18.27;14.53;;;18.50;99.90;;;;;;5055560;28;22482;-40
2022/08/25 06:40:52;;;;;;;20.03;15.30;;;18.50;99.90;;;;;;5073923;28;20470;-44
2022/08/25 06:43:20;;;;;;;18.43;14.80;;;18.60;99.90;;;;;;5061412;28;20218;-41
2022/08/25 06:45:47;;;;;;;16.07;13.93;;;18.60;99.90;;;;;;5066538;28;20674;-42
2022/08/25 06:48:15;;;;;;;17.00;14.53;;;18.70;99.90;;;;;;5063253;28;20234;-40
2022/08/25 06:50:43;;;;;;;18.93;13.80;;;18.70;99.90;;;;;;5058445;28;20241;-40
2022/08/25 06:53:10;;;;;;;16.10;13.47;;;18.70;99.90;;;;;;5066697;28;20312;-40
2022/08/25 06:55:37;;;;;;;16.03;13.40;;;18.80;99.90;;;;;;5053824;28;20700;-39
2022/08/25 06:58:04;;;;;;;15.57;12.53;;;18.90;99.90;;;;;;5058668;28;20210;-40
2022/08/25 07:00:33;;;;;;;15.23;13.57;;;19.00;99.90;;;;;;5072597;28;20668;-39
2022/08/25 07:03:00;;;;;;;18.60;13.63;;;19.00;99.90;;;;;;5066168;28;20883;-39
2022/08/25 07:05:28;;;;;;;16.90;14.10;;;19.00;99.90;;;;;;5066016;28;20203;-38
2022/08/25 07:07:54;;;;;;;22.63;15.80;;;19.00;99.90;;;;;;5057372;28;20279;-38
2022/08/25 07:10:22;;;;;;;18.73;15.03;;;19.00;99.90;;;;;;5058857;28;20202;-40
2022/08/25 07:12:49;;;;;;;18.83;14.13;;;19.00;99.90;;;;;;5070521;28;20698;-38
2022/08/25 07:15:16;;;;;;;19.60;14.33;;;19.00;99.90;;;;;;5069039;28;20206;-43
2022/08/25 07:17:44;;;;;;;16.33;13.13;;;19.10;99.90;;;;;;5078031;28;20675;-39
2022/08/25 07:20:12;;;;;;;14.83;13.33;;;19.10;99.90;;;;;;5071216;28;20187;-42
2022/08/25 07:22:39;;;;;;;16.20;14.07;;;19.10;99.90;;;;;;5067394;28;20234;-40
2022/08/25 07:25:07;;;;;;;16.13;13.87;;;19.10;99.90;;;;;;5055615;28;20270;-41
2022/08/25 07:27:34;;;;;;;16.03;13.83;;;19.10;99.90;;;;;;5072072;28;20214;-38
2022/08/25 07:30:01;;;;;;;15.13;13.50;;;19.10;99.90;;;;;;5060436;28;21014;-40
2022/08/25 07:32:28;;;;;;;14.07;12.60;;;19.10;99.90;;;;;;5072826;28;20221;-39
2022/08/25 07:37:41;;;;;;;14.67;13.17;;;19.20;99.90;;;;;;5074684;28;20670;-39
2022/08/25 07:40:10;;;;;;;15.63;13.40;;;19.20;99.90;;;;;;5056589;28;20208;-40
2022/08/25 07:42:36;;;;;;;14.57;12.80;;;19.20;99.90;;;;;;5066072;28;20587;-40
2022/08/25 07:45:04;;;;;;;15.33;13.37;;;19.20;99.90;;;;;;5067081;28;20233;-41
2022/08/25 07:47:35;;;;;;;16.50;12.63;;;19.20;99.90;;;;;;5071027;28;20287;-39
2022/08/25 07:50:04;;;;;;;14.07;11.57;;;19.20;99.90;;;;;;5072520;28;20191;-39
2022/08/25 07:52:30;;;;;;;14.33;12.37;;;19.20;99.90;;;;;;5073122;28;20617;-39
2022/08/25 07:54:57;;;;;;;12.47;11.07;;;19.30;99.90;;;;;;5061728;28;20195;-42
2022/08/25 07:57:25;;;;;;;13.40;10.67;;;19.30;99.90;;;;;;5069399;28;20202;-39
2022/08/25 07:59:52;;;;;;;11.33;10.23;;;19.40;99.90;;;;;;5063009;28;20214;-38
2022/08/25 08:02:18;;;;;;;12.20;10.60;;;19.40;99.90;;;;;;5069587;28;20222;-41
2022/08/25 08:04:47;;;;;;;11.83;10.63;;;19.40;99.90;;;;;;5064230;28;20214;-39
2022/08/25 08:07:17;;;;;;;11.37;10.20;;;19.30;99.90;;;;;;5072764;28;20202;-40
2022/08/25 08:09:44;;;;;;;14.00;10.70;;;19.40;99.90;;;;;;5068994;28;20717;-38
2022/08/25 08:12:10;;;;;;;11.53;10.47;;;19.40;99.90;;;;;;5060010;28;20225;-40
2022/08/25 08:14:37;;;;;;;10.70;9.70;;;19.40;99.90;;;;;;5066343;28;20276;-39
2022/08/25 08:17:06;;;;;;;11.83;10.63;;;19.40;99.90;;;;;;5066220;28;20198;-39
2022/08/25 08:19:33;;;;;;;12.73;9.93;;;19.50;99.90;;;;;;5067194;28;20591;-39
2022/08/25 08:22:00;;;;;;;11.20;10.07;;;19.60;99.90;;;;;;5062804;28;20952;-39
2022/08/25 08:24:30;;;;;;;12.20;10.93;;;19.60;99.90;;;;;;5070669;28;20214;-40
2022/08/25 08:26:58;;;;;;;11.37;10.27;;;19.60;99.90;;;;;;5054663;28;20304;-39
2022/08/25 08:29:25;;;;;;;12.13;10.47;;;19.70;99.90;;;;;;5063955;28;20206;-38
2022/08/25 08:31:52;;;;;;;11.70;10.50;;;19.70;99.90;;;;;;5065066;28;20279;-40
2022/08/25 08:34:19;;;;;;;11.97;10.87;;;19.60;99.90;;;;;;5066562;28;20565;-39
2022/08/25 08:36:45;;;;;;;13.90;11.80;;;19.60;99.90;;;;;;5067104;28;20655;-38
2022/08/25 08:39:12;;;;;;;12.73;11.43;;;19.60;99.90;;;;;;5071828;28;20201;-40
2022/08/25 08:42:20;;;;;;;11.90;10.80;;;19.60;99.90;;;;;;5072397;28;20316;-39
2022/08/25 08:45:06;;;;;;;12.40;11.20;;;19.70;99.90;;;;;;5052606;28;20271;-38
2022/08/25 08:47:47;;;;;;;10.73;9.70;;;19.70;99.90;;;;;;5065859;28;20754;-39
2022/08/25 08:50:24;;;;;;;12.43;11.07;;;19.80;99.90;;;;;;5068077;28;20660;-39
2022/08/25 08:53:00;;;;;;;12.77;11.57;;;19.80;99.90;;;;;;5059342;28;20205;-38
2022/08/25 08:55:31;;;;;;;14.77;10.60;;;19.90;99.90;;;;;;5068342;28;20705;-39
2022/08/25 08:58:02;;;;;;;11.03;10.03;;;19.90;99.90;;;;;;5050771;28;22267;-40
2022/08/25 09:00:32;;;;;;;12.83;10.47;;;19.90;99.90;;;;;;5065682;28;20877;-39
2022/08/25 09:03:05;;;;;;;14.33;13.03;;;20.00;99.90;;;;;;5058702;28;20201;-39
2022/08/25 09:05:38;;;;;;;13.90;12.57;;;20.10;99.90;;;;;;5075180;28;20233;-40
2022/08/25 09:08:08;;;;;;;14.57;13.10;;;20.10;99.90;;;;;;5066136;28;20201;-39
2022/08/25 09:10:50;;;;;;;13.83;12.43;;;20.20;99.90;;;;;;5066619;28;20317;-41
2022/08/25 09:13:31;;;;;;;19.63;15.37;;;20.30;99.90;;;;;;5067186;28;20547;-38
2022/08/25 09:18:56;;;;;;;16.63;14.87;;;20.50;99.90;;;;;;5064227;28;20194;-40
2022/08/25 09:21:30;;;;;;;17.50;15.77;;;20.70;99.90;;;;;;5062659;28;20215;-38
2022/08/25 09:24:18;;;;;;;15.93;14.43;;;20.70;99.90;;;;;;5068673;28;20214;-39
2022/08/25 09:26:53;;;;;;;14.60;13.13;;;20.80;99.90;;;;;;5068783;28;20249;-38
2022/08/25 09:29:25;;;;;;;15.20;12.40;;;21.00;99.90;;;;;;5056056;28;20216;-40
2022/08/25 09:31:54;;;;;;;14.23;12.30;;;21.10;99.90;;;;;;5059634;28;20228;-39
2022/08/25 09:34:22;;;;;;;17.00;11.30;;;21.20;99.90;;;;;;5071955;28;20201;-44
2022/08/25 09:36:51;;;;;;;11.13;10.10;;;21.40;99.90;;;;;;5062119;28;20191;-42
2022/08/25 09:39:19;;;;;;;13.50;12.07;;;21.50;99.90;;;;;;5075092;28;20554;-44
2022/08/25 09:41:50;;;;;;;12.63;11.27;;;21.60;99.90;;;;;;5068425;28;20229;-44
2022/08/25 09:44:24;;;;;;;10.43;9.33;;;21.80;99.90;;;;;;5057372;28;20695;-42
2022/08/25 09:47:00;;;;;;;14.50;8.67;;;22.00;99.90;;;;;;5062994;28;20202;-40
2022/08/25 09:49:34;;;;;;;10.63;8.00;;;22.10;99.90;;;;;;5065694;28;20220;-43
2022/08/25 09:52:21;;;;;;;9.57;7.30;;;22.20;99.90;;;;;;5058665;28;20323;-46
2022/08/25 09:54:50;;;;;;;8.87;6.77;;;22.30;99.90;;;;;;5073774;28;20187;-41
2022/08/25 09:57:30;;;;;;;7.77;6.97;;;22.40;99.90;;;;;;5077942;28;20239;-43
2022/08/25 10:00:10;;;;;;;7.93;6.23;;;22.50;99.90;;;;;;5058333;28;20197;-42
2022/08/25 10:02:38;;;;;;;7.67;5.60;;;22.60;99.90;;;;;;5053196;28;20233;-41
2022/08/25 10:05:19;;;;;;;5.93;5.40;;;22.70;99.90;;;;;;5075442;28;20618;-45
2022/08/25 10:07:52;;;;;;;6.10;5.50;;;22.70;99.90;;;;;;5069028;28;20205;-45
2022/08/25 10:10:27;;;;;;;6.67;4.87;;;22.80;99.90;;;;;;5071048;28;20194;-42
2022/08/25 10:12:57;;;;;;;7.57;4.73;;;22.90;99.90;;;;;;5078044;28;20354;-43
2022/08/25 10:15:29;;;;;;;4.90;4.50;;;23.00;99.90;;;;;;5057262;28;20230;-41
2022/08/25 10:17:58;;;;;;;7.43;5.13;;;23.30;99.90;;;;;;5074745;28;20208;-41
2022/08/25 10:20:27;;;;;;;7.65;4.15;;;23.50;99.90;;;;;;5067265;28;20198;-42
2022/08/25 10:23:10;;;;;;;6.85;4.43;;;23.60;99.90;;;;;;5065801;28;20193;-43
2022/08/25 10:25:42;;;;;;;6.38;4.40;;;23.70;99.90;;;;;;5070368;28;20505;-44
2022/08/25 10:28:18;;;;;;;6.18;3.90;;;23.80;99.90;;;;;;5072672;28;20195;-42
2022/08/25 10:30:57;;;;;;;4.80;4.15;;;24.00;99.90;;;;;;5057316;28;22002;-43
2022/08/25 10:33:31;;;;;;;5.40;3.80;;;24.20;99.90;;;;;;5058274;28;20585;-42
2022/08/25 10:36:05;;;;;;;5.75;3.60;;;24.50;99.90;;;;;;5065896;28;20198;-43
2022/08/25 10:38:42;;;;;;;6.13;3.80;;;24.80;99.90;;;;;;5066863;28;20204;-43
2022/08/25 10:41:35;;;;;;;4.50;3.70;;;24.90;99.90;;;;;;5073244;28;20222;-41
2022/08/25 10:47:07;;;;;;;6.78;3.50;;;25.00;99.90;;;;;;5057540;28;20206;-44
2022/08/25 10:49:42;;;;;;;4.15;3.83;;;25.00;99.90;;;;;;5062147;28;20281;-42
2022/08/25 10:52:16;;;;;;;6.72;3.88;;;25.20;99.90;;;;;;5075054;28;20230;-41
2022/08/25 10:54:49;;;;;;;5.50;3.33;;;25.30;99.90;;;;;;5069569;28;20204;-43
2022/08/25 10:57:22;;;;;;;5.05;3.58;;;25.20;99.90;;;;;;5079095;28;20193;-42
2022/08/25 11:00:00;;;;;;;5.78;3.55;;;25.00;99.90;;;;;;5070726;28;20925;-43
2022/08/25 11:02:54;;;;;;;5.75;4.10;;;24.90;99.90;;;;;;5056806;28;20226;-42
2022/08/25 11:05:27;;;;;;;3.80;3.35;;;24.80;99.90;;;;;;5068760;28;20310;-41
2022/08/25 11:08:03;;;;;;;7.15;3.78;;;24.90;99.90;;;;;;5070805;28;20574;-43
2022/08/25 11:10:38;;;;;;;4.53;3.33;;;25.00;99.90;;;;;;5066049;28;20617;-41
2022/08/25 11:13:12;;;;;;;3.70;3.35;;;25.10;99.90;;;;;;5068194;28;20202;-42
2022/08/25 11:15:51;;;;;;;6.53;3.33;;;25.20;99.90;;;;;;5068975;28;20228;-46
2022/08/25 11:18:21;;;;;;;4.40;3.67;;;25.30;99.90;;;;;;5061788;28;20205;-40
2022/08/25 11:20:59;;;;;;;5.20;3.45;;;25.40;99.90;;;;;;5072017;28;20229;-40
2022/08/25 11:23:33;;;;;;;3.45;3.03;;;25.50;99.90;;;;;;5075201;28;20201;-40
2022/08/25 11:26:04;;;;;;;5.63;3.15;;;25.50;99.90;;;;;;5067527;28;20590;-41
2022/08/25 11:28:36;;;;;;;7.07;3.45;;;25.40;99.90;;;;;;5071623;28;20285;-42
2022/08/25 11:31:04;;;;;;;3.95;3.42;;;25.40;99.90;;;;;;5073097;28;20583;-41
2022/08/25 11:33:33;;;;;;;3.40;3.10;;;25.40;99.90;;;;;;5055698;28;20210;-43
2022/08/25 11:36:04;;;;;;;3.63;3.20;;;25.60;99.90;;;;;;5073503;28;20198;-41
2022/08/25 11:38:49;;;;;;;4.88;3.60;;;25.70;99.90;;;;;;5069012;28;20694;-41
2022/08/25 11:41:25;;;;;;;4.40;2.97;;;26.10;99.90;;;;;;5065748;28;20315;-41
2022/08/25 11:44:09;;;;;;;3.85;3.22;;;26.30;99.90;;;;;;5072060;28;20301;-41
2022/08/25 11:46:50;;;;;;;6.50;3.25;;;26.40;99.90;;;;;;5068931;28;20216;-44
2022/08/25 11:49:33;;;;;;;3.83;2.95;;;26.40;99.90;;;;;;5059553;28;20706;-45
2022/08/25 11:52:00;;;;;;;6.07;3.28;;;26.40;99.90;;;;;;5073339;28;20278;-41
2022/08/25 11:54:29;;;;;;;3.20;2.80;;;26.50;99.90;;;;;;5065101;28;20217;-44
2022/08/25 11:57:00;;;;;;;3.95;2.67;;;26.60;99.90;;;;;;5071546;28;20256;-42
2022/08/25 12:00:06;;;;;;;4.40;3.20;;;26.60;99.90;;;;;;5072576;28;20259;-45
2022/08/25 12:02:36;;;;;;;7.13;3.08;;;26.60;99.80;;;;;;5073473;28;20233;-43
2022/08/25 12:05:08;;;;;;;3.75;3.08;;;26.60;99.90;;;;;;5062584;28;20224;-41
2022/08/25 12:10:58;;;;;;;5.72;3.10;;;26.40;99.90;;;;;;5059865;28;20198;-41
2022/08/25 12:13:41;;;;;;;3.92;2.55;;;26.30;99.50;;;;;;5070449;28;20202;-41
2022/08/25 12:16:41;;;;;;;3.33;2.60;;;26.30;99.80;;;;;;5064538;28;20186;-43
2022/08/25 12:19:26;;;;;;;2.95;2.70;;;26.50;99.70;;;;;;5071606;28;20210;-41
2022/08/25 12:21:57;;;;;;;3.05;2.78;;;26.60;99.00;;;;;;5055244;28;20228;-42
2022/08/25 12:24:47;;;;;;;3.35;2.53;;;26.70;99.20;;;;;;5072840;28;20213;-41
2022/08/25 12:27:25;;;;;;;5.22;2.90;;;27.00;98.80;;;;;;5066129;28;20202;-42
2022/08/25 12:29:57;;;;;;;4.05;2.60;;;27.20;98.20;;;;;;5070423;28;20676;-43
2022/08/25 12:32:47;;;;;;;3.13;2.83;;;27.30;97.80;;;;;;5074346;28;20225;-44
2022/08/25 12:35:29;;;;;;;3.47;2.67;;;27.20;97.30;;;;;;5070649;28;20678;-41
2022/08/25 12:38:00;;;;;;;2.88;2.60;;;27.30;97.70;;;;;;5071249;28;20198;-41
2022/08/25 12:40:33;;;;;;;3.28;2.63;;;27.50;97.20;;;;;;5074427;28;20198;-45
2022/08/25 12:43:07;;;;;;;7.78;2.78;;;27.60;96.40;;;;;;5073090;28;20289;-42
2022/08/25 12:45:39;;;;;;;5.50;2.35;;;27.70;95.40;;;;;;5059808;28;21019;-41
2022/08/25 12:48:55;;;;;;;3.03;2.72;;;27.60;95.70;;;;;;5065985;28;20281;-45
2022/08/25 12:51:25;;;;;;;3.83;2.42;;;27.70;94.80;;;;;;4982371;28;20260;-43
2022/08/25 12:53:57;;;;;;;4.32;2.70;;;27.80;94.70;;;;;;5054814;28;20202;-42
2022/08/25 12:56:29;;;;;;;3.35;2.10;;;27.80;94.60;;;;;;5066829;28;20855;-43
2022/08/25 12:59:07;;;;;;;3.80;2.20;;;27.70;94.20;;;;;;5074616;28;20351;-44
2022/08/25 13:01:58;;;;;;;2.97;2.78;;;27.70;94.30;;;;;;5069490;28;20241;-45
2022/08/25 13:04:53;;;;;;;3.08;2.42;;;27.70;94.10;;;;;;5062547;28;20222;-46
2022/08/25 13:07:33;;;;;;;4.43;2.78;;;27.70;94.00;;;;;;5057253;28;20338;-43
2022/08/25 13:10:18;;;;;;;3.28;2.53;;;28.00;93.80;;;;;;5064755;28;20259;-41
2022/08/25 13:12:52;;;;;;;2.85;2.47;;;28.20;93.10;;;;;;5065617;28;20242;-43
2022/08/25 13:15:32;;;;;;;4.90;2.47;;;28.50;92.70;;;;;;5068855;28;20870;-41
2022/08/25 13:18:22;;;;;;;3.97;2.63;;;28.90;92.40;;;;;;5065555;28;20591;-46
2022/08/25 13:20:52;;;;;;;3.88;2.25;;;29.50;91.30;;;;;;5059367;28;20383;-43